CheckWX is a tool to help pilots better visualize weather data.  It is not intended as a substitute for an official pre-flight weather briefing.

18:53:32 UTC

CYQZ METAR
Quesnel Airport
Quesnel, Canada
Current

54 mins ago

CYQZ 171800Z AUTO 12006KT 100V160 9SM FEW080 08/04 A2970 RMK SLP077
Observed
Nov-17 @ 18:00 UTC
Wind
  • 120° at 6 KTS
Visibility
9 SM
Flight Rules
VFR
Cloud Levels
  • Few at 8,000' AGL
Temperature
C / 46°F
Dewpoint
C / 39°F
Humidity
76%
Altimeter
29.7" Hg
Pressure
1005.72 hPa
Previous

2 hours ago

CYQZ 171700Z AUTO 14011G19KT 9SM BKN075 OVC086 07/04 A2970 RMK SLP077
Observed
Nov-17 @ 17:00 UTC
Wind
  • 140° at 11 KTS
  • Gusting to 19 KTS
Visibility
9 SM
Flight Rules
VFR
Cloud Levels
  • Broken at 7,500' AGL
  • Overcast at 8,600' AGL
Temperature
C / 45°F
Dewpoint
C / 39°F
Humidity
81%
Altimeter
29.7" Hg
Pressure
1005.72 hPa
Previous

3 hours ago

CYQZ 171600Z AUTO 14010G15KT 9SM CLR 06/04 A2969 RMK SLP075
Observed
Nov-17 @ 16:00 UTC
Wind
  • 140° at 10 KTS
  • Gusting to 15 KTS
Visibility
9 SM
Flight Rules
VFR
Cloud Levels
  • Clear skies
Temperature
C / 43°F
Dewpoint
C / 39°F
Humidity
87%
Altimeter
29.69" Hg
Pressure
1005.42 hPa